Flight Track Log - Related Links

Times and Time Zones

All times are in EDT time to prevent confusion due to time zone crossing. See the CTL78 flight status page for this flight to view local times or setup timezone preferences in your user account.

Time Position Orientation Groundspeed Altitude Reporting Facility
EDT Latitude Longitude Course Direction KTS MPH feet Rate Location/Type
Fri 04:08:25 PM 42.6675 -83.4042 63° Northeast 118 136 1,400  Level Cleveland Center
Fri 04:09:27 PM 42.6831 -83.3625 63° Northeast 141 162 2,100 634 Climbing Cleveland Center
Fri 04:10:28 PM 42.7150 -83.3300 37° Northeast 151 174 2,700 590 Climbing Cleveland Center
Fri 04:12:00 PM 42.7710 -83.3805 North  Level Estimated
Fri 04:19:00 PM 43.0513 -83.5333 321° Northwest  Level FlightAware Approximate
Fri 04:20:00 PM 43.0854 -83.5710 321° Northwest  Level FlightAware Approximate
Fri 04:21:00 PM 43.1194 -83.6087 321° Northwest  Level FlightAware Approximate
Fri 04:22:00 PM 43.1535 -83.6464 321° Northwest  Level FlightAware Approximate
Fri 04:23:00 PM 43.1875 -83.6842 321° Northwest  Level FlightAware Approximate
Fri 04:24:00 PM 43.2214 -83.7224 318° Northwest  Level FlightAware Approximate
Fri 04:25:00 PM 43.2541 -83.7623 318° Northwest  Level FlightAware Approximate
Fri 04:26:00 PM 43.2868 -83.8023 318° Northwest  Level FlightAware Approximate
Fri 04:27:00 PM 43.3195 -83.8423 318° Northwest  Level FlightAware Approximate
Fri 04:28:00 PM 43.3522 -83.8823 318° Northwest  Level FlightAware Approximate
Fri 04:29:00 PM 43.3865 -83.9197 324° Northwest  Level FlightAware Approximate
Fri 04:30:00 PM 43.4219 -83.9551 324° Northwest  Level FlightAware Approximate
Fri 04:31:00 PM 43.4573 -83.9906 324° Northwest  Level FlightAware Approximate
Fri 04:32:00 PM 43.4927 -84.0261 324° Northwest  Level FlightAware Approximate
Fri 04:33:00 PM 43.5167 -84.0667 305° West  Level FlightAware Approximate
Fri 04:34:00 PM 43.5329 -84.0796 305° West  Level Estimated
Fri 04:35:00 PM 43.5329 -84.0796 305° West  Level Estimated
Fri 04:36:00 PM 43.5329 -84.0796 305° West  Level Estimated
Fri 04:37:00 PM 43.5329 -84.0796 305° West  Level Estimated
Fri 04:38:00 PM 43.5329 -84.0796 305° West  Level Estimated
Fri 04:39:00 PM 43.5329 -84.0796 305° West  Level Estimated
Fri 04:40:00 PM 43.5329 -84.0796 305° West  Level Estimated

Login

Don't have an account? Register now (free) for customized features, flight alerts, and more!